createdAt,value
2018-03-19T00:01:23.407Z,4.07
2018-03-19T00:03:50.882Z,2.50
2018-03-19T00:06:18.347Z,2.67
2018-03-19T00:08:45.891Z,3.60
2018-03-19T00:11:13.375Z,2.60
2018-03-19T00:13:40.835Z,2.70
2018-03-19T00:16:08.295Z,3.20
2018-03-19T00:18:35.871Z,3.67
2018-03-19T00:21:03.322Z,2.37
2018-03-19T00:23:30.786Z,3.10
2018-03-19T00:25:58.252Z,2.20
2018-03-19T00:28:26.502Z,2.60
2018-03-19T00:30:53.971Z,2.60
2018-03-19T00:33:21.449Z,3.00
2018-03-19T00:35:49.670Z,2.63
2018-03-19T00:38:17.128Z,3.33
2018-03-19T00:40:44.623Z,2.53
2018-03-19T00:43:12.083Z,2.20
2018-03-19T00:45:39.536Z,2.50
2018-03-19T00:48:07.003Z,2.40
2018-03-19T00:50:35.236Z,2.70
2018-03-19T00:53:02.703Z,2.60
2018-03-19T00:55:30.175Z,3.00
2018-03-19T00:57:58.278Z,2.70
2018-03-19T01:00:26.521Z,3.60
2018-03-19T01:02:53.995Z,2.53
2018-03-19T01:05:22.239Z,2.70
2018-03-19T01:07:49.699Z,2.50
2018-03-19T01:10:17.406Z,2.20
2018-03-19T01:12:45.673Z,2.87
2018-03-19T01:15:13.218Z,2.90
2018-03-19T01:17:40.682Z,2.57
2018-03-19T01:20:08.910Z,2.10
2018-03-19T01:22:36.370Z,2.57
2018-03-19T01:25:03.844Z,2.23
2018-03-19T01:27:31.295Z,2.50
2018-03-19T01:29:58.750Z,2.67
2018-03-19T01:32:26.240Z,3.47
2018-03-19T01:34:54.467Z,3.40
2018-03-19T01:37:21.919Z,2.53
2018-03-19T01:39:50.166Z,2.90
2018-03-19T01:42:18.307Z,2.30
2018-03-19T01:44:45.781Z,3.23
2018-03-19T01:47:13.364Z,2.83
2018-03-19T01:49:40.822Z,2.33
2018-03-19T01:52:08.286Z,2.60
2018-03-19T01:54:35.754Z,2.67
2018-03-19T01:57:03.210Z,2.57
2018-03-19T01:59:30.664Z,2.90
2018-03-19T02:01:58.143Z,2.70
2018-03-19T02:04:25.606Z,2.30
2018-03-19T02:06:53.086Z,2.93
2018-03-19T02:09:21.336Z,2.23
2018-03-19T02:11:48.806Z,3.28
2018-03-19T02:14:17.264Z,1.92
2018-03-19T02:16:44.734Z,2.40
2018-03-19T02:19:12.202Z,3.00
2018-03-19T02:21:39.659Z,2.57
2018-03-19T02:24:07.137Z,2.30
2018-03-19T02:26:34.620Z,2.35
2018-03-19T02:29:02.091Z,2.90
2018-03-19T02:31:29.582Z,3.03
2018-03-19T02:33:57.404Z,2.72
2018-03-19T02:36:24.871Z,2.60
2018-03-19T02:38:52.349Z,2.77
2018-03-19T02:41:19.819Z,2.30
2018-03-19T02:43:47.287Z,2.30
2018-03-19T02:46:15.535Z,2.40
2018-03-19T02:48:43.011Z,2.50
2018-03-19T02:51:11.249Z,2.47
2018-03-19T02:53:38.744Z,3.57
2018-03-19T02:56:06.212Z,2.50
2018-03-19T02:58:34.443Z,3.60
2018-03-19T03:01:01.932Z,2.58
2018-03-19T03:03:29.402Z,2.95
2018-03-19T03:05:57.637Z,2.80
2018-03-19T03:08:25.118Z,2.90
2018-03-19T03:10:52.592Z,3.00
2018-03-19T03:13:20.830Z,2.20
2018-03-19T03:15:48.310Z,2.72
2018-03-19T03:18:15.793Z,2.90
2018-03-19T03:20:43.252Z,3.42
2018-03-19T03:23:10.714Z,2.70
2018-03-19T03:25:38.186Z,3.13
2018-03-19T03:28:05.655Z,2.37
2018-03-19T03:30:33.131Z,3.47
2018-03-19T03:33:00.603Z,2.43
2018-03-19T03:35:28.069Z,3.40
2018-03-19T03:37:56.303Z,3.03
2018-03-19T03:40:23.779Z,2.80
2018-03-19T03:42:51.247Z,2.83
2018-03-19T03:45:19.628Z,2.90
2018-03-19T03:47:47.110Z,2.77
2018-03-19T03:50:15.338Z,3.37
2018-03-19T03:52:42.819Z,2.67
2018-03-19T03:55:10.290Z,2.65
2018-03-19T03:57:39.330Z,3.35
2018-03-19T04:00:06.807Z,2.87
2018-03-19T04:02:34.302Z,2.85
2018-03-19T04:05:02.561Z,3.05
2018-03-19T04:07:30.814Z,2.65
2018-03-19T04:09:58.283Z,3.00
2018-03-19T04:12:25.746Z,3.00
2018-03-19T04:14:53.251Z,2.63
2018-03-19T04:17:20.722Z,2.80
2018-03-19T04:19:48.187Z,2.58
2018-03-19T04:22:15.662Z,3.17
2018-03-19T04:24:43.143Z,2.62
2018-03-19T04:27:11.366Z,2.90
2018-03-19T04:29:38.863Z,2.70
2018-03-19T04:32:06.330Z,3.15
2018-03-19T04:34:34.571Z,3.03
2018-03-19T04:37:02.053Z,2.92
2018-03-19T04:39:30.283Z,3.53
2018-03-19T04:41:57.791Z,3.05
2018-03-19T04:44:26.047Z,2.90
2018-03-19T04:46:53.538Z,3.53
2018-03-19T04:49:21.777Z,2.95
2018-03-19T04:51:49.254Z,2.83
2018-03-19T04:54:16.717Z,3.10
2018-03-19T04:56:44.947Z,3.65
2018-03-19T04:59:12.435Z,3.45
2018-03-19T05:01:39.912Z,2.60
2018-03-19T05:04:08.158Z,2.80
2018-03-19T05:06:35.624Z,2.72
2018-03-19T05:09:03.090Z,3.00
2018-03-19T05:11:30.576Z,3.08
2018-03-19T05:13:58.054Z,2.80
2018-03-19T05:16:25.514Z,2.67
2018-03-19T05:18:52.999Z,3.03
2018-03-19T05:21:20.463Z,2.65
2018-03-19T05:23:47.931Z,3.67
2018-03-19T05:26:15.403Z,2.80
2018-03-19T05:28:43.643Z,2.85
2018-03-19T05:31:11.119Z,2.80
2018-03-19T05:33:38.648Z,2.87
2018-03-19T05:36:06.103Z,2.85
2018-03-19T05:38:33.579Z,3.00
2018-03-19T05:41:01.055Z,2.75
2018-03-19T05:43:29.295Z,2.80
2018-03-19T05:45:56.759Z,3.17
2018-03-19T05:48:24.287Z,2.67
2018-03-19T05:50:51.746Z,2.70
2018-03-19T05:53:20.004Z,3.67
2018-03-19T05:55:47.477Z,2.83
2018-03-19T05:58:14.947Z,2.97
2018-03-19T06:00:42.406Z,4.03
2018-03-19T06:03:10.719Z,2.67
2018-03-19T06:05:38.958Z,2.78
2018-03-19T06:08:06.423Z,2.97
2018-03-19T06:10:33.925Z,3.92
2018-03-19T06:13:02.159Z,2.60
2018-03-19T06:15:29.632Z,2.90
2018-03-19T06:17:57.120Z,2.95
2018-03-19T06:20:24.704Z,3.22
2018-03-19T06:22:52.186Z,3.20
2018-03-19T06:25:19.665Z,3.28
2018-03-19T06:27:47.138Z,3.05
2018-03-19T06:30:15.379Z,3.40
2018-03-19T06:32:42.858Z,2.70
2018-03-19T06:35:11.086Z,3.00
2018-03-19T06:37:38.562Z,3.17
2018-03-19T06:40:06.048Z,3.53
2018-03-19T06:42:33.506Z,2.78
2018-03-19T06:45:01.743Z,3.33
2018-03-19T06:47:29.227Z,3.03
2018-03-19T06:49:56.692Z,3.72
2018-03-19T06:52:24.168Z,2.83
2018-03-19T06:54:52.430Z,2.65
2018-03-19T06:57:20.667Z,3.17
2018-03-19T06:59:48.139Z,3.25
2018-03-19T07:02:15.640Z,3.37
2018-03-19T07:04:43.125Z,3.50
2018-03-19T07:07:10.623Z,2.83
2018-03-19T07:09:38.069Z,2.92
2018-03-19T07:12:05.539Z,3.70
2018-03-19T07:14:33.004Z,3.42
2018-03-19T07:17:01.254Z,3.78
2018-03-19T07:19:28.718Z,2.70
2018-03-19T07:21:56.200Z,3.60
2018-03-19T07:24:24.448Z,3.05
2018-03-19T07:26:51.920Z,4.15
2018-03-19T07:29:19.395Z,3.50
2018-03-19T07:31:47.638Z,3.05
2018-03-19T07:34:15.110Z,3.40
2018-03-19T07:36:43.346Z,3.37
2018-03-19T07:39:10.856Z,3.55
2018-03-19T07:41:39.609Z,3.60
2018-03-19T07:44:07.092Z,4.10
2018-03-19T07:46:35.347Z,3.53
2018-03-19T07:49:02.823Z,3.90
2018-03-19T07:51:30.278Z,3.63
2018-03-19T07:53:59.346Z,4.30
2018-03-19T07:56:26.815Z,3.47
2018-03-19T07:58:54.276Z,4.20
2018-03-19T08:01:21.807Z,3.73
2018-03-19T08:03:49.992Z,3.67
2018-03-19T08:06:17.518Z,3.57
2018-03-19T08:08:44.987Z,4.00
2018-03-19T08:11:12.455Z,4.47
2018-03-19T08:13:39.993Z,4.10
2018-03-19T08:16:07.462Z,4.30
2018-03-19T08:18:34.950Z,4.00
2018-03-19T08:21:02.402Z,4.30
2018-03-19T08:23:29.880Z,4.50
2018-03-19T08:25:58.144Z,4.00
2018-03-19T08:28:26.347Z,4.03
2018-03-19T08:30:53.830Z,4.07
2018-03-19T08:33:21.298Z,4.20
2018-03-19T08:35:48.754Z,3.67
2018-03-19T08:38:16.235Z,4.27
2018-03-19T08:40:43.695Z,3.87
2018-03-19T08:43:11.164Z,3.87
2018-03-19T08:45:38.636Z,3.53
2018-03-19T08:48:06.872Z,4.17
2018-03-19T08:50:34.332Z,4.93
2018-03-19T08:53:01.811Z,6.17
2018-03-19T08:55:29.278Z,4.20
2018-03-19T08:57:57.536Z,4.93
2018-03-19T09:00:25.018Z,4.17
2018-03-19T09:02:53.239Z,4.27
2018-03-19T09:05:20.720Z,3.97
2018-03-19T09:07:48.191Z,4.20
2018-03-19T09:10:15.643Z,4.03
2018-03-19T09:12:43.098Z,3.67
2018-03-19T09:15:10.571Z,4.20
2018-03-19T09:17:38.796Z,4.40
2018-03-19T09:20:06.255Z,4.10
2018-03-19T09:22:33.719Z,4.03
2018-03-19T09:25:01.183Z,4.30
2018-03-19T09:27:28.640Z,4.20
2018-03-19T09:29:56.112Z,4.70
2018-03-19T09:32:23.570Z,5.37
2018-03-19T09:34:51.030Z,5.37
2018-03-19T09:37:18.550Z,4.00
2018-03-19T09:39:46.787Z,4.13
2018-03-19T09:42:15.019Z,5.00
2018-03-19T09:44:42.484Z,4.80
2018-03-19T09:47:09.940Z,4.60
2018-03-19T09:49:37.416Z,5.17
2018-03-19T09:52:05.718Z,4.50
2018-03-19T09:54:33.180Z,4.67
2018-03-19T09:57:00.652Z,4.70
2018-03-19T09:59:28.123Z,4.50
2018-03-19T10:01:55.587Z,4.47
2018-03-19T10:04:23.051Z,5.43
2018-03-19T10:06:50.527Z,4.90
2018-03-19T10:09:17.978Z,4.70
2018-03-19T10:11:45.435Z,4.73
2018-03-19T10:14:12.907Z,5.03
2018-03-19T10:16:41.143Z,5.20
2018-03-19T10:19:08.603Z,5.07
2018-03-19T10:21:36.083Z,5.00
2018-03-19T10:24:03.544Z,4.77
2018-03-19T10:26:31.772Z,4.50
2018-03-19T10:28:59.999Z,4.67
2018-03-19T10:31:28.234Z,4.57
2018-03-19T10:33:55.695Z,4.57
2018-03-19T10:36:23.158Z,5.80
2018-03-19T10:38:50.624Z,5.30
2018-03-19T10:41:18.084Z,5.50
2018-03-19T10:43:45.565Z,5.47
2018-03-19T10:46:13.790Z,4.90
2018-03-19T10:48:42.014Z,4.53
2018-03-19T10:51:10.274Z,4.90
2018-03-19T10:53:37.726Z,5.03
2018-03-19T10:56:05.193Z,4.83
2018-03-19T10:58:32.662Z,4.53
2018-03-19T11:01:06.721Z,5.00
2018-03-19T11:03:34.186Z,4.50
2018-03-19T11:06:07.302Z,5.27
2018-03-19T11:08:34.784Z,4.63
2018-03-19T11:11:02.246Z,5.20
2018-03-19T11:13:29.691Z,5.10
2018-03-19T11:15:57.951Z,5.00
2018-03-19T11:18:25.404Z,5.20
2018-03-19T11:20:52.868Z,6.47
2018-03-19T11:23:20.347Z,5.27
2018-03-19T11:25:47.798Z,4.77
2018-03-19T11:28:16.019Z,5.13
2018-03-19T11:30:43.483Z,5.07
2018-03-19T11:33:10.944Z,5.70
2018-03-19T11:35:38.404Z,5.00
2018-03-19T11:38:05.964Z,4.83
2018-03-19T11:40:34.211Z,5.10
2018-03-19T11:43:01.675Z,5.07
2018-03-19T11:45:29.154Z,5.03
2018-03-19T11:47:56.615Z,4.53
2018-03-19T11:50:24.066Z,5.70
2018-03-19T11:52:51.548Z,5.63
2018-03-19T11:55:19.788Z,5.40
2018-03-19T11:57:47.247Z,5.13
2018-03-19T12:00:14.725Z,4.50
2018-03-19T12:02:42.175Z,3.90
2018-03-19T12:05:09.635Z,4.73
2018-03-19T12:07:37.119Z,5.00
2018-03-19T12:10:04.605Z,4.83
2018-03-19T12:12:32.055Z,4.80
2018-03-19T12:14:59.527Z,4.40
2018-03-19T12:17:26.985Z,4.13
2018-03-19T12:19:54.444Z,4.77
2018-03-19T12:22:21.906Z,4.80
2018-03-19T12:24:49.366Z,4.80
2018-03-19T12:27:16.818Z,4.20
2018-03-19T12:29:44.287Z,5.00
2018-03-19T12:32:11.736Z,4.43
2018-03-19T12:34:39.207Z,4.30
2018-03-19T12:37:07.451Z,4.50
2018-03-19T12:39:34.897Z,4.10
2018-03-19T12:42:02.367Z,4.00
2018-03-19T12:44:29.826Z,4.30
2018-03-19T12:46:57.283Z,3.90
2018-03-19T12:49:24.753Z,4.30
2018-03-19T12:51:52.214Z,4.10
2018-03-19T12:54:19.671Z,3.90
2018-03-19T12:56:47.127Z,3.63
2018-03-19T12:59:14.707Z,4.07
2018-03-19T13:01:42.156Z,4.10
2018-03-19T13:04:09.612Z,3.43
2018-03-19T13:06:37.094Z,4.00
2018-03-19T13:09:05.311Z,3.47
2018-03-19T13:11:32.778Z,4.20
2018-03-19T13:14:00.251Z,4.10
2018-03-19T13:16:27.711Z,3.83
2018-03-19T13:18:55.268Z,4.17
2018-03-19T13:21:22.788Z,4.47
2018-03-19T13:23:50.963Z,4.03
2018-03-19T13:26:18.420Z,4.10
2018-03-19T13:28:45.887Z,4.60
2018-03-19T13:31:13.329Z,4.37
2018-03-19T13:33:40.789Z,4.20
2018-03-19T13:36:09.015Z,3.90
2018-03-19T13:38:36.471Z,3.80
2018-03-19T13:41:03.924Z,3.70
2018-03-19T13:43:31.383Z,3.40
2018-03-19T13:45:59.179Z,3.97
2018-03-19T13:48:26.631Z,3.50
2018-03-19T13:50:54.100Z,3.40
2018-03-19T13:53:21.556Z,5.33
2018-03-19T13:55:49.004Z,4.20
2018-03-19T13:58:16.478Z,3.63
2018-03-19T14:00:43.938Z,3.50
2018-03-19T14:03:11.487Z,3.10
2018-03-19T14:05:39.473Z,3.20
2018-03-19T14:08:06.922Z,3.47
2018-03-19T14:10:34.387Z,3.90
2018-03-19T14:13:01.880Z,3.70
2018-03-19T14:15:30.115Z,3.70
2018-03-19T14:17:58.092Z,3.60
2018-03-19T14:20:25.558Z,3.47
2018-03-19T14:22:53.029Z,3.50
2018-03-19T14:25:20.486Z,3.27
2018-03-19T14:27:48.052Z,3.33
2018-03-19T14:30:16.190Z,3.90
2018-03-19T14:32:43.648Z,3.40
2018-03-19T14:35:11.116Z,4.47
2018-03-19T14:37:38.593Z,3.47
2018-03-19T14:40:06.038Z,3.73
2018-03-19T14:42:33.506Z,3.60
2018-03-19T14:45:00.967Z,3.80
2018-03-19T14:47:28.416Z,3.50
2018-03-19T14:49:55.907Z,3.40
2018-03-19T14:52:24.135Z,3.03
2018-03-19T14:54:51.592Z,3.53
2018-03-19T14:57:19.739Z,3.57
2018-03-19T14:59:47.198Z,3.30
2018-03-19T15:02:14.652Z,3.10
2018-03-19T15:04:42.131Z,3.43
2018-03-19T15:07:09.587Z,3.53
2018-03-19T15:09:37.079Z,3.30
2018-03-19T15:12:05.420Z,3.40
2018-03-19T15:14:32.874Z,3.37
2018-03-19T15:17:00.335Z,3.23
2018-03-19T15:19:27.825Z,3.50
2018-03-19T15:21:56.043Z,3.10
2018-03-19T15:24:23.501Z,3.50
2018-03-19T15:26:50.982Z,3.07
2018-03-19T15:29:18.438Z,3.57
2018-03-19T15:31:45.907Z,3.27
2018-03-19T15:34:13.383Z,3.30
2018-03-19T15:36:41.609Z,3.40
2018-03-19T15:39:09.059Z,3.30
2018-03-19T15:41:36.519Z,3.17
2018-03-19T15:44:03.995Z,3.47
2018-03-19T15:46:31.437Z,3.17
2018-03-19T15:48:59.735Z,3.17
2018-03-19T15:51:27.191Z,2.83
2018-03-19T15:53:54.652Z,3.07
2018-03-19T15:56:22.120Z,3.57
2018-03-19T15:58:49.575Z,3.20
2018-03-19T16:01:17.871Z,3.03
2018-03-19T16:03:46.110Z,4.47
2018-03-19T16:06:13.566Z,3.80
2018-03-19T16:08:41.037Z,3.47
2018-03-19T16:11:08.506Z,3.57
2018-03-19T16:13:36.731Z,3.20
2018-03-19T16:16:04.189Z,2.90
2018-03-19T16:18:31.696Z,3.10
2018-03-19T16:20:59.924Z,5.07
2018-03-19T16:23:27.389Z,3.70
2018-03-19T16:25:54.854Z,3.50
2018-03-19T16:28:22.319Z,3.27
2018-03-19T16:30:49.771Z,2.83
2018-03-19T16:33:17.247Z,2.90
2018-03-19T16:35:44.801Z,3.07
2018-03-19T16:38:12.268Z,3.23
2018-03-19T16:40:39.987Z,3.23
2018-03-19T16:43:07.436Z,3.10
2018-03-19T16:45:34.896Z,3.10
2018-03-19T16:48:02.370Z,3.60
2018-03-19T16:50:29.828Z,3.80
2018-03-19T16:52:57.291Z,2.67
2018-03-19T16:55:24.774Z,2.40
2018-03-19T16:57:52.998Z,2.80
2018-03-19T17:00:20.451Z,2.60
2018-03-19T17:02:47.915Z,2.43
2018-03-19T17:05:15.379Z,2.67
2018-03-19T17:07:42.823Z,3.00
2018-03-19T17:10:10.351Z,2.67
2018-03-19T17:12:38.018Z,2.40
2018-03-19T17:15:05.471Z,3.20
2018-03-19T17:17:32.966Z,3.30
2018-03-19T17:20:00.425Z,3.40
2018-03-19T17:22:27.894Z,3.60
2018-03-19T17:24:55.478Z,3.40
2018-03-19T17:27:22.941Z,3.13
2018-03-19T17:29:51.195Z,2.83
2018-03-19T17:32:19.320Z,3.20
2018-03-19T17:34:46.782Z,4.00
2018-03-19T17:37:14.284Z,3.20
2018-03-19T17:39:41.743Z,2.93
2018-03-19T17:42:09.226Z,3.00
2018-03-19T17:44:37.587Z,2.80
2018-03-19T17:47:05.827Z,2.87
2018-03-19T17:49:33.299Z,4.13
2018-03-19T17:52:00.784Z,2.70
2018-03-19T17:54:29.007Z,2.83
2018-03-19T17:56:56.462Z,2.80
2018-03-19T17:59:23.979Z,3.10
2018-03-19T18:01:53.029Z,3.50
2018-03-19T18:04:20.548Z,3.20
2018-03-19T18:06:47.967Z,3.57
2018-03-19T18:09:15.448Z,4.37
2018-03-19T18:11:42.911Z,4.63
2018-03-19T18:14:11.095Z,5.30
2018-03-19T18:16:39.219Z,6.80
2018-03-19T18:19:06.684Z,6.17
2018-03-19T18:21:34.140Z,5.43
2018-03-19T18:24:01.707Z,5.07
2018-03-19T18:26:29.935Z,4.80
2018-03-19T18:28:57.392Z,4.60
2018-03-19T18:31:25.862Z,4.00
2018-03-19T18:33:53.318Z,4.63
2018-03-19T18:36:20.809Z,5.50
2018-03-19T18:38:48.287Z,5.17
2018-03-19T18:41:16.535Z,5.23
2018-03-19T18:43:44.014Z,5.03
2018-03-19T18:46:11.526Z,5.40
2018-03-19T18:48:39.815Z,5.97
2018-03-19T18:51:07.280Z,5.67
2018-03-19T18:53:34.788Z,6.00
2018-03-19T18:56:02.306Z,5.43
2018-03-19T18:58:29.758Z,6.17
2018-03-19T19:00:57.437Z,4.73
2018-03-19T19:03:24.911Z,4.80
2018-03-19T19:05:53.147Z,4.93
2018-03-19T19:08:20.622Z,6.10
2018-03-19T19:10:49.611Z,5.20
2018-03-19T19:13:17.071Z,5.60
2018-03-19T19:15:44.566Z,5.40
2018-03-19T19:18:12.051Z,4.80
2018-03-19T19:20:39.522Z,5.47
2018-03-19T19:23:07.500Z,5.40
2018-03-19T19:25:35.031Z,5.13
2018-03-19T19:28:02.498Z,5.80
2018-03-19T19:30:29.990Z,4.90
2018-03-19T19:32:57.459Z,6.30
2018-03-19T19:35:25.688Z,5.73
2018-03-19T19:37:53.695Z,6.00
2018-03-19T19:40:21.923Z,6.50
2018-03-19T19:42:49.400Z,6.03
2018-03-19T19:45:16.895Z,5.80
2018-03-19T19:47:45.155Z,5.03
2018-03-19T19:50:12.627Z,4.77
2018-03-19T19:52:41.315Z,5.97
2018-03-19T19:55:09.561Z,6.40
2018-03-19T19:57:37.031Z,5.67
2018-03-19T20:00:05.288Z,7.10
2018-03-19T20:02:32.743Z,5.97
2018-03-19T20:05:00.228Z,5.60
2018-03-19T20:07:28.548Z,8.50
2018-03-19T20:09:56.039Z,7.53
2018-03-19T20:12:23.595Z,7.47
2018-03-19T20:14:51.802Z,9.30
2018-03-19T20:17:20.027Z,7.90
2018-03-19T20:19:48.340Z,7.40
2018-03-19T20:22:15.819Z,7.30
2018-03-19T20:24:44.063Z,7.23
2018-03-19T20:27:11.783Z,7.20
2018-03-19T20:29:39.291Z,6.73
2018-03-19T20:32:07.567Z,6.57
2018-03-19T20:34:35.040Z,5.87
2018-03-19T20:37:03.275Z,5.80
2018-03-19T20:39:30.759Z,6.73
2018-03-19T20:41:58.226Z,7.00
2018-03-19T20:44:26.484Z,6.20
2018-03-19T20:46:53.952Z,6.70
2018-03-19T20:49:22.175Z,5.50
2018-03-19T20:51:49.654Z,5.43
2018-03-19T20:54:17.140Z,5.33
2018-03-19T20:56:45.373Z,5.63
2018-03-19T20:59:12.877Z,6.83
2018-03-19T21:01:41.123Z,7.03
2018-03-19T21:04:09.376Z,8.27
2018-03-19T21:06:36.983Z,8.80
2018-03-19T21:09:05.232Z,6.83
2018-03-19T21:11:32.720Z,6.93
2018-03-19T21:14:00.972Z,5.90
2018-03-19T21:16:28.455Z,6.27
2018-03-19T21:18:56.735Z,5.10
2018-03-19T21:21:24.983Z,5.60
2018-03-19T21:23:52.464Z,5.83
2018-03-19T21:26:20.717Z,5.57
2018-03-19T21:28:48.236Z,5.23
2018-03-19T21:31:15.716Z,5.87
2018-03-19T21:33:43.215Z,5.37
2018-03-19T21:36:10.731Z,6.60
2018-03-19T21:38:38.199Z,4.80
2018-03-19T21:41:05.816Z,5.97
2018-03-19T21:43:33.278Z,5.30
2018-03-19T21:46:00.753Z,5.57
2018-03-19T21:48:28.224Z,5.00
2018-03-19T21:50:55.687Z,5.20
2018-03-19T21:53:23.168Z,5.67
2018-03-19T21:55:51.396Z,5.03
2018-03-19T21:58:18.905Z,5.53
2018-03-19T22:00:47.143Z,5.27
2018-03-19T22:03:14.627Z,6.20
2018-03-19T22:05:42.862Z,6.37
2018-03-19T22:08:10.451Z,5.77
2018-03-19T22:10:37.924Z,6.40
2018-03-19T22:13:06.153Z,5.00
2018-03-19T22:15:33.640Z,4.40
2018-03-19T22:18:01.107Z,4.80
2018-03-19T22:20:29.339Z,5.70
2018-03-19T22:22:56.816Z,5.23
2018-03-19T22:25:24.285Z,4.73
2018-03-19T22:27:51.743Z,5.40
2018-03-19T22:30:19.222Z,4.67
2018-03-19T22:32:47.457Z,5.13
2018-03-19T22:35:14.951Z,6.07
2018-03-19T22:37:43.190Z,4.37
2018-03-19T22:40:10.707Z,4.97
2018-03-19T22:42:38.393Z,4.93
2018-03-19T22:45:05.867Z,6.10
2018-03-19T22:47:33.324Z,4.40
2018-03-19T22:50:00.793Z,5.10
2018-03-19T22:52:28.262Z,5.00
2018-03-19T22:54:56.500Z,6.47
2018-03-19T22:57:23.987Z,4.97
2018-03-19T22:59:52.231Z,4.93
2018-03-19T23:02:19.695Z,5.33
2018-03-19T23:05:21.751Z,5.80
2018-03-19T23:07:49.211Z,5.47
2018-03-19T23:10:16.686Z,6.57
2018-03-19T23:12:44.154Z,5.53
2018-03-19T23:15:11.611Z,6.40
2018-03-19T23:17:39.088Z,6.80
2018-03-19T23:20:06.559Z,6.33
2018-03-19T23:22:34.025Z,7.20
2018-03-19T23:25:01.495Z,6.53
2018-03-19T23:27:28.977Z,6.87
2018-03-19T23:29:56.445Z,6.23
2018-03-19T23:32:23.915Z,5.97
2018-03-19T23:34:51.391Z,5.07
2018-03-19T23:37:18.859Z,4.70
2018-03-19T23:39:46.328Z,5.50
2018-03-19T23:42:13.804Z,5.50
2018-03-19T23:44:41.272Z,5.20
2018-03-19T23:47:08.731Z,5.30
2018-03-19T23:49:36.202Z,5.57
2018-03-19T23:52:03.681Z,5.90
2018-03-19T23:54:31.906Z,5.93
2018-03-19T23:57:00.154Z,6.43
2018-03-19T23:59:27.611Z,5.40
